Portada
METAR-TAF:

METAR-TAF

Aeropuertos :

Base de la Fuerza Aérea Eielson

Fairbanks Eielson, Alaska, Estados Unidos

latitud: 64-39N, longitud: 147-06W, altitud: 167 m

Observación

El informe se hizo hace 25 minutos, a las 04:56 UTC
Viento calma
Temperatura 21°C
Humedad 43%
Presión 1022 hPa
Visibilidad: 16.1 km
Cielo despejado

METAR: PAEI 250456Z AUTO 00000KT 10SM CLR 21/08 A3018 RMK AO2 SLP223 T02130079 $

Hora: 21:21 (05:21 UTC)

Pronóstico

El informe se hizo hace 6 horas y 51 minutos, a las 22:30 UTC
Pronóstico válido del 24 a las 22 UTC al 26 a las 04 UTC
Viento 6 kt con dirección variable
Visibilidad 10 km o más
Nubes dispersas a una altura de 21000 ft

TAF: PAEI 242230Z 2422/2604 VRB06KT 9999 SCT210 QNH3022INS TX24/2501Z TN10/2510Z

Observaciones y pronósticos meteorológicos de más de 4000 aeropuertos (mensajes METAR y TAF).

Los puntos amarillos y rojos representan las estaciones disponibles.

Ponga el ratón en el punto deseado para ver el nombre de la estación.

Haga clic para ver las observaciones y los pronósticos meteorológicos.

Para cambiar el mapa : haga clic en los botones verdes con una cruz de color negro para hacer un zoom, en el botón verde con un guión para alejar o en las flechas verdes para mapas adyacentes.


METAR-TAF: